createdAt,value
2022-08-08T00:01:14.436Z,98338.03
2022-08-08T00:06:42.569Z,98326.66
2022-08-08T00:12:09.980Z,98336.38
2022-08-08T00:18:01.666Z,98339.63
2022-08-08T00:23:42.299Z,98344.09
2022-08-08T00:28:49.973Z,98349.78
2022-08-08T00:34:46.196Z,98346.50
2022-08-08T00:41:12.460Z,98359.66
2022-08-08T00:45:49.192Z,98353.00
2022-08-08T00:51:22.466Z,98358.38
2022-08-08T00:56:50.002Z,98358.66
2022-08-08T01:03:59.002Z,98366.94
2022-08-08T01:08:09.601Z,98365.81
2022-08-08T01:13:43.949Z,98366.44
2022-08-08T01:19:02.514Z,98367.44
2022-08-08T01:24:34.611Z,98363.16
2022-08-08T01:29:58.884Z,98357.09
2022-08-08T01:35:29.597Z,98350.56
2022-08-08T01:41:01.622Z,98349.75
2022-08-08T01:46:43.891Z,98360.41
2022-08-08T01:53:03.991Z,98359.66
2022-08-08T01:58:11.858Z,98376.31
2022-08-08T02:03:56.090Z,98361.41
2022-08-08T02:10:01.837Z,98361.44
2022-08-08T02:15:00.926Z,98363.41
2022-08-08T02:21:01.311Z,98354.59
2022-08-08T02:26:46.642Z,98352.81
2022-08-08T02:31:59.624Z,98349.78
2022-08-08T02:37:53.282Z,98348.53
2022-08-08T02:44:42.817Z,98344.25
2022-08-08T02:48:58.525Z,98350.06
2022-08-08T02:54:13.332Z,98353.81
2022-08-08T02:59:58.442Z,98350.78
2022-08-08T03:05:58.713Z,98358.88
2022-08-08T03:11:05.272Z,98356.94
2022-08-08T03:16:48.632Z,98360.75
2022-08-08T03:21:58.954Z,98364.72
2022-08-08T03:27:15.801Z,98360.25
2022-08-08T03:32:41.401Z,98372.78
2022-08-08T03:38:54.243Z,98374.16
2022-08-08T03:43:15.922Z,98378.50
2022-08-08T03:49:09.910Z,98398.22
2022-08-08T03:53:47.690Z,98399.78
2022-08-08T03:58:54.293Z,98408.56
2022-08-08T04:04:02.111Z,98401.41
2022-08-08T04:09:25.259Z,98415.56
2022-08-08T04:14:34.378Z,98414.84
2022-08-08T04:19:38.545Z,98416.53
2022-08-08T04:24:41.744Z,98421.28
2022-08-08T04:30:01.047Z,98424.34
2022-08-08T04:35:13.471Z,98427.69
2022-08-08T04:40:19.274Z,98433.28
2022-08-08T04:45:29.679Z,98448.16
2022-08-08T04:50:38.344Z,98444.59
2022-08-08T04:55:55.456Z,98456.78
2022-08-08T05:01:00.338Z,98455.69
2022-08-08T05:06:25.900Z,98467.84
2022-08-08T05:11:38.966Z,98476.78
2022-08-08T05:16:51.030Z,98467.13
2022-08-08T05:22:01.640Z,98458.63
2022-08-08T05:27:08.189Z,98463.88
2022-08-08T05:32:14.598Z,98472.03
2022-08-08T05:37:24.045Z,98475.66
2022-08-08T05:42:49.826Z,98475.72
2022-08-08T05:48:01.329Z,98480.34
2022-08-08T05:53:54.829Z,98482.63
2022-08-08T05:58:33.217Z,98488.19
2022-08-08T06:03:40.450Z,98493.09
2022-08-08T06:08:54.906Z,98498.22
2022-08-08T06:14:00.541Z,98500.31
2022-08-08T06:19:04.670Z,98498.28
2022-08-08T06:24:13.720Z,98493.25
2022-08-08T06:29:56.895Z,98504.13
2022-08-08T06:35:30.638Z,98506.38
2022-08-08T06:40:40.715Z,98515.94
2022-08-08T06:45:55.276Z,98516.03
2022-08-08T06:51:00.341Z,98505.72
2022-08-08T06:56:11.512Z,98520.13
2022-08-08T07:02:16.430Z,98524.66
2022-08-08T07:06:56.659Z,98525.78
2022-08-08T07:12:07.390Z,98519.28
2022-08-08T07:17:18.968Z,98511.03
2022-08-08T07:22:37.666Z,98520.09
2022-08-08T07:28:00.837Z,98530.34
2022-08-08T07:33:06.861Z,98528.06
2022-08-08T07:38:18.418Z,98522.00
2022-08-08T07:43:37.711Z,98531.34
2022-08-08T07:48:46.248Z,98523.34
2022-08-08T07:54:05.664Z,98530.00
2022-08-08T07:59:15.849Z,98525.75
2022-08-08T08:04:43.448Z,98533.56
2022-08-08T08:09:46.481Z,98537.88
2022-08-08T08:14:56.239Z,98530.97
2022-08-08T08:20:04.980Z,98550.44
2022-08-08T08:25:09.011Z,98540.16
2022-08-08T08:30:15.053Z,98537.69
2022-08-08T08:35:21.654Z,98544.75
2022-08-08T08:40:35.313Z,98547.88
2022-08-08T08:45:39.662Z,98549.53
2022-08-08T08:50:48.421Z,98545.09
2022-08-08T08:56:01.812Z,98544.09
2022-08-08T09:01:15.172Z,98545.91
2022-08-08T09:06:34.248Z,98545.22
2022-08-08T09:11:47.227Z,98539.00
2022-08-08T09:17:12.939Z,98542.94
2022-08-08T09:22:26.629Z,98535.97
2022-08-08T09:27:56.460Z,98543.69
2022-08-08T09:33:53.760Z,98538.06
2022-08-08T09:38:59.277Z,98533.47
2022-08-08T09:44:33.741Z,98532.03
2022-08-08T09:49:42.825Z,98532.16
2022-08-08T09:54:54.154Z,98526.91
2022-08-08T10:00:35.778Z,98526.53
2022-08-08T10:05:26.316Z,98523.78
2022-08-08T10:10:38.195Z,98515.63
2022-08-08T10:16:00.820Z,98515.41
2022-08-08T10:21:25.292Z,98513.06
2022-08-08T10:27:02.548Z,98510.25
2022-08-08T10:32:27.887Z,98506.19
2022-08-08T10:37:35.385Z,98506.78
2022-08-08T10:42:43.685Z,98496.00
2022-08-08T10:47:57.014Z,98507.41
2022-08-08T10:53:12.727Z,98507.66
2022-08-08T10:58:16.015Z,98502.53
2022-08-08T11:03:18.958Z,98502.25
2022-08-08T11:08:46.232Z,98502.66
2022-08-08T11:14:00.098Z,98486.47
2022-08-08T11:19:05.244Z,98495.63
2022-08-08T11:24:14.690Z,98481.84
2022-08-08T11:29:18.102Z,98479.94
2022-08-08T11:34:34.494Z,98480.34
2022-08-08T11:39:57.183Z,98462.16
2022-08-08T11:45:00.937Z,98466.13
2022-08-08T11:50:10.068Z,98466.63
2022-08-08T11:55:17.958Z,98467.59
2022-08-08T12:00:28.607Z,98469.56
2022-08-08T12:05:37.036Z,98455.31
2022-08-08T12:10:53.074Z,98450.19
2022-08-08T12:16:05.953Z,98448.19
2022-08-08T12:21:59.895Z,98435.66
2022-08-08T12:26:54.182Z,98439.28
2022-08-08T12:32:17.339Z,98447.72
2022-08-08T12:37:41.840Z,98437.50
2022-08-08T12:42:49.969Z,98431.66
2022-08-08T12:48:10.203Z,98424.78
2022-08-08T12:53:36.532Z,98430.53
2022-08-08T12:58:51.900Z,98423.66
2022-08-08T13:03:54.451Z,98422.72
2022-08-08T13:09:10.415Z,98431.25
2022-08-08T13:14:15.361Z,98424.66
2022-08-08T13:19:23.343Z,98420.72
2022-08-08T13:24:40.865Z,98416.44
2022-08-08T13:29:57.893Z,98410.78
2022-08-08T13:35:00.535Z,98406.00
2022-08-08T13:40:05.567Z,98397.56
2022-08-08T13:45:12.508Z,98390.41
2022-08-08T13:50:36.756Z,98389.41
2022-08-08T13:55:42.673Z,98388.28
2022-08-08T14:00:50.688Z,98387.63
2022-08-08T14:05:57.603Z,98383.16
2022-08-08T14:11:04.419Z,98382.09
2022-08-08T14:16:16.225Z,98371.16
2022-08-08T14:21:20.882Z,98366.38
2022-08-08T14:26:28.196Z,98370.50
2022-08-08T14:32:06.079Z,98373.50
2022-08-08T14:36:54.510Z,98381.84
2022-08-08T14:42:03.514Z,98373.13
2022-08-08T14:47:21.249Z,98370.19
2022-08-08T14:52:24.340Z,98352.53
2022-08-08T14:58:06.246Z,98353.41
2022-08-08T15:03:01.604Z,98362.00
2022-08-08T15:08:22.335Z,98363.84
2022-08-08T15:13:40.610Z,98360.81
2022-08-08T15:18:58.712Z,98362.00
2022-08-08T15:24:01.530Z,98350.47
2022-08-08T15:29:06.676Z,98354.81
2022-08-08T15:34:18.658Z,98345.22
2022-08-08T15:39:37.931Z,98358.44
2022-08-08T15:44:42.940Z,98351.75
2022-08-08T15:49:49.035Z,98354.50
2022-08-08T15:54:52.581Z,98348.00
2022-08-08T16:00:06.848Z,98340.09
2022-08-08T16:05:18.834Z,98341.13
2022-08-08T16:13:02.147Z,98342.34
2022-08-08T16:15:57.970Z,98336.19
2022-08-08T16:21:26.036Z,98340.91
2022-08-08T16:26:33.924Z,98341.16
2022-08-08T16:31:44.804Z,98346.31
2022-08-08T16:36:51.228Z,98346.31
2022-08-08T16:41:54.000Z,98341.28
2022-08-08T16:47:40.746Z,98349.44
2022-08-08T16:55:22.472Z,98349.63
2022-08-08T16:58:14.214Z,98348.53
2022-08-08T17:03:24.846Z,98344.47
2022-08-08T17:08:37.995Z,98342.09
2022-08-08T17:14:00.821Z,98349.00
2022-08-08T17:19:03.993Z,98352.81
2022-08-08T17:24:19.429Z,98355.38
2022-08-08T17:29:33.696Z,98355.84
2022-08-08T17:34:59.961Z,98357.31
2022-08-08T17:40:10.538Z,98367.25
2022-08-08T17:45:23.396Z,98374.59
2022-08-08T17:50:26.594Z,98371.88
2022-08-08T17:56:06.108Z,98383.06
2022-08-08T18:00:56.188Z,98376.41
2022-08-08T18:05:59.736Z,98383.38
2022-08-08T18:11:22.665Z,98385.22
2022-08-08T18:16:26.976Z,98389.38
2022-08-08T18:22:01.407Z,98389.75
2022-08-08T18:26:58.879Z,98389.94
2022-08-08T18:32:03.723Z,98394.38
2022-08-08T18:37:08.395Z,98407.44
2022-08-08T18:42:16.578Z,98407.69
2022-08-08T18:47:20.378Z,98418.59
2022-08-08T18:52:26.520Z,98416.19
2022-08-08T18:57:31.587Z,98432.66
2022-08-08T19:02:54.714Z,98439.00
2022-08-08T19:07:58.881Z,98444.44
2022-08-08T19:13:02.462Z,98452.94
2022-08-08T19:18:31.986Z,98457.63
2022-08-08T19:23:29.359Z,98468.78
2022-08-08T19:28:38.141Z,98469.38
2022-08-08T19:34:04.643Z,98475.59
2022-08-08T19:39:06.796Z,98491.91
2022-08-08T19:44:12.565Z,98494.03
2022-08-08T19:49:15.860Z,98492.75
2022-08-08T19:54:18.402Z,98500.31
2022-08-08T19:59:22.684Z,98510.44
2022-08-08T20:04:25.357Z,98509.75
2022-08-08T20:09:29.892Z,98513.38
2022-08-08T20:14:35.933Z,98521.28
2022-08-08T20:19:44.745Z,98516.75
2022-08-08T20:24:50.309Z,98523.97
2022-08-08T20:29:55.700Z,98527.03
2022-08-08T20:35:04.190Z,98516.97
2022-08-08T20:40:08.246Z,98522.31
2022-08-08T20:45:11.297Z,98523.91
2022-08-08T20:50:15.470Z,98524.72
2022-08-08T20:55:25.987Z,98523.22
2022-08-08T21:00:28.743Z,98523.28
2022-08-08T21:05:32.940Z,98528.91
2022-08-08T21:10:52.434Z,98524.09
2022-08-08T21:16:04.909Z,98530.50
2022-08-08T21:21:29.732Z,98525.19
2022-08-08T21:26:42.584Z,98532.25
2022-08-08T21:31:53.320Z,98532.91
2022-08-08T21:37:06.793Z,98532.69
2022-08-08T21:42:15.074Z,98534.88
2022-08-08T21:48:02.154Z,98531.91
2022-08-08T21:54:30.979Z,98531.16
2022-08-08T21:58:07.576Z,98539.59
2022-08-08T22:03:17.882Z,98543.88
2022-08-08T22:08:24.244Z,98537.25
2022-08-08T22:13:27.002Z,98534.09
2022-08-08T22:18:52.561Z,98536.44
2022-08-08T22:23:55.848Z,98531.59
2022-08-08T22:29:14.788Z,98530.03
2022-08-08T22:34:27.027Z,98528.53
2022-08-08T22:39:45.873Z,98528.97
2022-08-08T22:44:53.419Z,98530.50
2022-08-08T22:50:00.880Z,98527.38
2022-08-08T22:55:05.913Z,98531.00
2022-08-08T23:00:12.139Z,98539.78
2022-08-08T23:05:16.166Z,98528.94
2022-08-08T23:10:21.324Z,98528.72
2022-08-08T23:16:37.786Z,98533.28
2022-08-08T23:20:54.923Z,98533.28
2022-08-08T23:25:58.631Z,98525.16
2022-08-08T23:31:02.354Z,98525.69
2022-08-08T23:36:08.443Z,98527.44
2022-08-08T23:41:23.218Z,98520.88
2022-08-08T23:49:03.737Z,98516.31
2022-08-08T23:52:06.104Z,98519.09
2022-08-08T23:57:15.235Z,98520.63
